Time;durP1;ratioP1;P1;durP2;ratioP2;P2;SDS_P1;SDS_P2;PMS_P1;PMS_P2;Temp;Humidity;BMP_temperature;BMP_pressure;BME280_temperature;BME280_humidity;BME280_pressure;Samples;Min_cycle;Max_cycle;Signal;HPM_P1;HPM_P2
2022/07/19 00:01:22;;;;;;;;;;;;;;;17.21;61.48;100602.38;6247891;28;19921;-70
2022/07/19 00:04:23;;;;;;;;;;;;;;;17.16;61.96;100599.28;6230212;28;20318;-72
2022/07/19 00:07:24;;;;;;;;;;;;;;;17.13;62.82;100608.25;6247853;28;20020;-76
2022/07/19 00:10:25;;;;;;;;;;;;;;;17.08;63.01;100599.88;6230153;28;19989;-76
2022/07/19 00:13:26;;;;;;;;;;;;;;;17.06;63.34;100607.06;6229814;28;20303;-75
2022/07/19 00:16:27;;;;;;;;;;;;;;;16.96;63.83;100598.22;6247230;28;20019;-76
2022/07/19 00:19:28;;;;;;;;;;;;;;;16.96;61.61;100599.06;6230198;28;19944;-72
2022/07/19 00:22:29;;;;;;;;;;;;;;;16.86;63.94;100595.47;6247504;28;19921;-76
2022/07/19 00:25:30;;;;;;;;;;;;;;;16.78;63.94;100598.69;6230116;28;19928;-76
2022/07/19 00:28:31;;;;;;;;;;;;;;;16.81;64.11;100601.09;6230076;28;19970;-71
2022/07/19 00:31:32;;;;;;;;;;;;;;;16.82;62.75;100602.81;6234884;28;19971;-75
2022/07/19 00:34:33;;;;;;;;;;;;;;;16.77;65.14;100604.06;6252317;28;19943;-71
2022/07/19 00:37:36;;;;;;;;;;;;;;;16.71;64.09;100606.22;6234831;28;19928;-71
2022/07/19 00:40:40;;;;;;;;;;;;;;;16.66;64.90;100600.47;6252237;28;20245;-71
2022/07/19 00:43:42;;;;;;;;;;;;;;;16.63;64.39;100607.78;6234831;28;20007;-75
2022/07/19 00:46:43;;;;;;;;;;;;;;;16.62;65.34;100601.69;6234112;28;20288;-76
2022/07/19 00:49:43;;;;;;;;;;;;;;;16.60;65.62;100600.97;6218153;28;19928;-76
2022/07/19 00:52:45;;;;;;;;;;;;;;;16.47;67.29;100593.19;6234223;28;20072;-71
2022/07/19 00:55:47;;;;;;;;;;;;;;;16.47;66.18;100593.19;6251758;28;19928;-71
2022/07/19 00:58:48;;;;;;;;;;;;;;;16.38;68.23;100599.13;6234244;28;19955;-72
2022/07/19 01:01:51;;;;;;;;;;;;;;;16.34;68.34;100587.16;6251739;28;21012;-70
2022/07/19 01:04:52;;;;;;;;;;;;;;;16.32;68.70;100596.97;6217779;28;19921;-71
2022/07/19 01:07:52;;;;;;;;;;;;;;;16.27;68.91;100593.88;6233405;28;19944;-76
2022/07/19 01:10:53;;;;;;;;;;;;;;;16.20;68.98;100590.84;6233449;28;19928;-71
2022/07/19 01:13:54;;;;;;;;;;;;;;;16.17;69.48;100588.47;6251424;28;19921;-71
2022/07/19 01:16:54;;;;;;;;;;;;;;;16.14;69.18;100587.84;6233703;28;20024;-72
2022/07/19 01:19:55;;;;;;;;;;;;;;;16.17;68.91;100579.72;6251386;28;20560;-71
2022/07/19 01:22:56;;;;;;;;;;;;;;;16.09;69.96;100578.50;6233386;28;19932;-72
2022/07/19 01:25:57;;;;;;;;;;;;;;;16.10;66.87;100585.47;6251240;28;19925;-71
2022/07/19 01:28:58;;;;;;;;;;;;;;;15.98;71.53;100585.53;6233529;28;19927;-75
2022/07/19 01:31:59;;;;;;;;;;;;;;;16.00;70.43;100589.75;6233588;28;20032;-75
2022/07/19 01:35:00;;;;;;;;;;;;;;;15.95;70.95;100581.34;6233422;28;19921;-70
2022/07/19 01:38:01;;;;;;;;;;;;;;;15.89;72.32;100580.00;6216881;28;20015;-71
2022/07/19 01:41:01;;;;;;;;;;;;;;;15.87;71.82;100587.16;6232479;28;20012;-71
2022/07/19 01:44:02;;;;;;;;;;;;;;;15.86;71.59;100582.88;6232946;28;20371;-71
2022/07/19 01:47:03;;;;;;;;;;;;;;;15.83;71.54;100583.09;6233146;28;19921;-71
2022/07/19 01:50:05;;;;;;;;;;;;;;;15.74;72.97;100578.53;6232703;28;19960;-70
2022/07/19 01:53:06;;;;;;;;;;;;;;;15.75;72.40;100577.59;6249863;28;19927;-70
2022/07/19 01:56:07;;;;;;;;;;;;;;;15.69;73.25;100578.84;6232844;28;19921;-76
2022/07/19 01:59:08;;;;;;;;;;;;;;;15.70;72.12;100583.13;6216666;28;19987;-76
2022/07/19 02:02:11;;;;;;;;;;;;;;;15.63;72.96;100576.66;6232514;28;20356;-75
2022/07/19 02:05:12;;;;;;;;;;;;;;;15.60;71.55;100578.66;6232916;28;19921;-71
2022/07/19 02:08:13;;;;;;;;;;;;;;;15.56;72.42;100588.56;6232673;28;19921;-71
2022/07/19 02:14:33;;;;;;;;;;;;;;;15.56;71.34;100577.22;6249079;28;20327;-75
2022/07/19 02:17:39;;;;;;;;;;;;;;;15.51;69.96;100573.13;6248959;28;19967;-75
2022/07/19 02:20:39;;;;;;;;;;;;;;;15.49;72.90;100568.94;6250071;28;20367;-71
2022/07/19 02:23:40;;;;;;;;;;;;;;;15.46;73.33;100570.03;6248754;28;19928;-70
2022/07/19 02:26:41;;;;;;;;;;;;;;;15.44;73.17;100568.44;6248710;28;20264;-71
2022/07/19 02:29:42;;;;;;;;;;;;;;;15.43;71.80;100572.84;6249595;28;19921;-75
2022/07/19 02:32:43;;;;;;;;;;;;;;;15.43;73.17;100577.28;6249568;28;19956;-70
2022/07/19 02:35:43;;;;;;;;;;;;;;;15.38;74.31;100568.88;6248195;28;19921;-75
2022/07/19 02:38:45;;;;;;;;;;;;;;;15.32;73.45;100572.81;6248176;28;19921;-71
2022/07/19 02:41:46;;;;;;;;;;;;;;;15.35;72.61;100575.22;6248144;28;19921;-70
2022/07/19 02:44:47;;;;;;;;;;;;;;;15.35;73.73;100579.63;6247740;28;20327;-71
2022/07/19 02:47:47;;;;;;;;;;;;;;;15.27;74.95;100575.75;6247968;28;19928;-71
2022/07/19 02:50:48;;;;;;;;;;;;;;;15.19;75.88;100575.47;6249054;28;19947;-76
2022/07/19 02:53:48;;;;;;;;;;;;;;;15.14;77.97;100571.50;6246985;28;19925;-70
2022/07/19 02:56:51;;;;;;;;;;;;;;;15.19;79.02;100580.72;6231548;28;20377;-76
2022/07/19 02:59:53;;;;;;;;;;;;;;;15.19;77.48;100575.47;6231612;28;19921;-76
2022/07/19 03:02:53;;;;;;;;;;;;;;;15.22;74.21;100577.88;6248873;28;19928;-75
2022/07/19 03:05:55;;;;;;;;;;;;;;;15.30;71.15;100593.13;6248702;28;19928;-75
2022/07/19 03:08:56;;;;;;;;;;;;;;;15.40;74.28;100588.00;6249133;28;20426;-70
2022/07/19 03:11:57;;;;;;;;;;;;;;;15.34;74.19;100591.09;6247472;28;19967;-71
2022/07/19 03:14:58;;;;;;;;;;;;;;;15.31;74.26;100592.97;6214663;28;20307;-71
2022/07/19 03:17:58;;;;;;;;;;;;;;;15.31;69.53;100603.50;6214572;28;19995;-71
2022/07/19 03:20:59;;;;;;;;;;;;;;;15.17;69.37;100608.91;6231118;28;19936;-71
2022/07/19 03:24:00;;;;;;;;;;;;;;;14.84;68.29;100620.84;6248527;28;19921;-75
2022/07/19 03:27:00;;;;;;;;;;;;;;;14.84;66.75;100620.03;6214695;28;19967;-75
2022/07/19 03:30:01;;;;;;;;;;;;;;;14.82;65.25;100625.38;6248438;28;19921;-71
2022/07/19 03:33:02;;;;;;;;;;;;;;;15.07;63.45;100627.16;6230790;28;19953;-70
2022/07/19 03:36:04;;;;;;;;;;;;;;;15.22;61.65;100621.75;6248198;28;19921;-70
2022/07/19 03:39:04;;;;;;;;;;;;;;;15.42;62.91;100620.28;6230607;28;19921;-70
2022/07/19 03:42:05;;;;;;;;;;;;;;;15.47;60.92;100623.44;6248171;28;20291;-70
2022/07/19 03:45:06;;;;;;;;;;;;;;;15.61;60.29;100619.81;6213482;28;19967;-70
2022/07/19 03:48:06;;;;;;;;;;;;;;;15.69;59.28;100628.81;6230488;28;19925;-69
2022/07/19 03:51:07;;;;;;;;;;;;;;;15.80;59.97;100632.50;6230467;28;20406;-75
2022/07/19 03:54:08;;;;;;;;;;;;;;;15.81;60.03;100629.72;6230360;28;19928;-75
2022/07/19 03:57:08;;;;;;;;;;;;;;;15.86;60.38;100632.03;6248053;28;20034;-75
2022/07/19 04:00:09;;;;;;;;;;;;;;;15.92;59.80;100636.84;6230180;28;19921;-70
2022/07/19 04:03:10;;;;;;;;;;;;;;;15.97;59.12;100628.59;6230433;28;20367;-70
2022/07/19 04:06:13;;;;;;;;;;;;;;;16.08;60.34;100633.88;6235341;28;19974;-70
2022/07/19 04:09:14;;;;;;;;;;;;;;;16.08;59.28;100629.47;6252847;28;20456;-76
2022/07/19 04:12:16;;;;;;;;;;;;;;;16.09;59.69;100633.78;6252719;28;19921;-70
2022/07/19 04:15:16;;;;;;;;;;;;;;;16.06;60.70;100643.69;6252862;28;20384;-70
2022/07/19 04:18:17;;;;;;;;;;;;;;;16.08;61.16;100634.75;6252807;28;19921;-70
2022/07/19 04:21:18;;;;;;;;;;;;;;;16.18;60.58;100639.31;6252743;28;20252;-70
2022/07/19 04:24:18;;;;;;;;;;;;;;;16.26;61.24;100644.84;6252655;28;19924;-75
2022/07/19 04:27:19;;;;;;;;;;;;;;;16.21;61.93;100647.81;6218539;28;20259;-70
2022/07/19 04:30:20;;;;;;;;;;;;;;;16.50;60.83;100652.69;6234873;28;19921;-70
2022/07/19 04:33:23;;;;;;;;;;;;;;;16.56;59.85;100654.84;6218520;28;19925;-75
2022/07/19 04:36:24;;;;;;;;;;;;;;;16.73;59.35;100664.06;6235036;28;19920;-75
2022/07/19 04:39:24;;;;;;;;;;;;;;;16.92;59.60;100663.50;6252275;28;20354;-70
2022/07/19 04:42:25;;;;;;;;;;;;;;;17.05;58.94;100658.16;6234713;28;20442;-69
2022/07/19 04:45:26;;;;;;;;;;;;;;;17.09;59.19;100665.69;6234324;28;19928;-70
2022/07/19 04:48:27;;;;;;;;;;;;;;;17.20;59.23;100667.47;6234605;28;20444;-75
2022/07/19 04:51:28;;;;;;;;;;;;;;;17.27;59.12;100668.63;6262216;28;19944;-75
2022/07/19 04:54:28;;;;;;;;;;;;;;;17.32;59.53;100671.75;6247946;28;19925;-75
2022/07/19 04:57:30;;;;;;;;;;;;;;;17.32;60.35;100666.50;6251986;28;19928;-70
2022/07/19 05:00:30;;;;;;;;;;;;;;;17.44;59.06;100664.69;6247024;28;19921;-76
2022/07/19 05:03:33;;;;;;;;;;;;;;;17.54;58.85;100664.75;6234277;28;20288;-76
2022/07/19 05:06:34;;;;;;;;;;;;;;;17.72;57.36;100660.63;6251719;28;19921;-76
2022/07/19 05:09:35;;;;;;;;;;;;;;;17.93;57.06;100665.16;6251583;28;19968;-76
2022/07/19 05:12:36;;;;;;;;;;;;;;;18.06;57.52;100665.81;6256400;28;19924;-76
2022/07/19 05:15:36;;;;;;;;;;;;;;;18.15;57.80;100656.28;6257231;28;20375;-75
2022/07/19 05:18:38;;;;;;;;;;;;;;;18.36;56.67;100658.09;6276093;28;19928;-76
2022/07/19 05:21:39;;;;;;;;;;;;;;;18.50;56.30;100661.25;6274757;28;20354;-69
2022/07/19 05:24:40;;;;;;;;;;;;;;;18.72;55.80;100654.97;6258374;28;19921;-76
2022/07/19 05:27:41;;;;;;;;;;;;;;;18.89;53.00;100653.56;6274894;28;19921;-75
2022/07/19 05:30:43;;;;;;;;;;;;;;;19.08;53.96;100657.25;6258113;28;20426;-76
2022/07/19 05:33:43;;;;;;;;;;;;;;;19.19;54.26;100661.59;6262174;28;19928;-77
2022/07/19 05:36:44;;;;;;;;;;;;;;;19.27;55.26;100654.66;6271426;28;20299;-76
2022/07/19 05:39:45;;;;;;;;;;;;;;;19.41;52.08;100663.19;6274566;28;19931;-70
2022/07/19 05:42:45;;;;;;;;;;;;;;;19.50;51.58;100654.44;6274524;28;19990;-75
2022/07/19 05:45:46;;;;;;;;;;;;;;;19.72;50.80;100651.53;6255182;28;20011;-70
2022/07/19 05:48:46;;;;;;;;;;;;;;;19.95;49.87;100659.22;6249709;28;19921;-76
2022/07/19 05:51:47;;;;;;;;;;;;;;;20.19;49.66;100650.84;6254496;28;19921;-76
2022/07/19 05:54:48;;;;;;;;;;;;;;;20.38;49.22;100652.63;6275384;28;19927;-75
2022/07/19 05:57:49;;;;;;;;;;;;;;;20.62;44.92;100659.31;6257203;28;19999;-71
2022/07/19 06:04:10;;;;;;;;;;;;;;;21.09;44.37;100651.31;6234892;28;19967;-71
2022/07/19 06:07:11;;;;;;;;;;;;;;;21.29;43.95;100650.22;6250277;28;20011;-76
2022/07/19 06:10:11;;;;;;;;;;;;;;;21.46;42.75;100659.22;6248882;28;19929;-76
2022/07/19 06:13:12;;;;;;;;;;;;;;;21.64;43.49;100651.28;6249166;28;19921;-71
2022/07/19 06:16:13;;;;;;;;;;;;;;;21.85;42.11;100658.94;6249276;28;20379;-71
2022/07/19 06:19:13;;;;;;;;;;;;;;;22.08;41.70;100651.34;6249198;28;20375;-75
2022/07/19 06:22:14;;;;;;;;;;;;;;;22.21;39.69;100647.44;6223695;28;20367;-76
2022/07/19 06:25:15;;;;;;;;;;;;;;;22.44;40.21;100661.09;6235430;28;19970;-71
2022/07/19 06:28:16;;;;;;;;;;;;;;;22.58;41.18;100660.50;6214638;28;19925;-76
2022/07/19 06:31:17;;;;;;;;;;;;;;;22.76;39.18;100660.47;6198755;28;19921;-71
2022/07/19 06:34:20;;;;;;;;;;;;;;;22.94;39.16;100658.56;6198371;28;19921;-76
2022/07/19 06:37:20;;;;;;;;;;;;;;;23.23;43.05;100662.69;6245707;28;19921;-76
2022/07/19 06:40:21;;;;;;;;;;;;;;;23.39;40.88;100664.56;6228363;28;19928;-76
2022/07/19 06:43:22;;;;;;;;;;;;;;;23.61;39.28;100665.78;6256666;28;19921;-70
2022/07/19 06:46:22;;;;;;;;;;;;;;;23.77;37.47;100661.50;6235197;28;20345;-70
2022/07/19 06:49:23;;;;;;;;;;;;;;;23.83;39.03;100663.53;6252031;28;19921;-75
2022/07/19 06:52:26;;;;;;;;;;;;;;;24.12;38.09;100663.03;6234479;28;19928;-77
2022/07/19 06:55:27;;;;;;;;;;;;;;;24.36;39.02;100664.84;6273060;28;19920;-77
2022/07/19 06:58:29;;;;;;;;;;;;;;;24.58;37.65;100668.66;6239016;28;20019;-71
2022/07/19 07:01:30;;;;;;;;;;;;;;;24.82;36.64;100669.59;6246008;28;20441;-76
2022/07/19 07:04:30;;;;;;;;;;;;;;;24.94;35.76;100674.38;6238565;28;19921;-76
2022/07/19 07:07:31;;;;;;;;;;;;;;;25.26;35.57;100669.94;6272925;28;19921;-76
2022/07/19 07:10:32;;;;;;;;;;;;;;;25.42;33.47;100669.03;6266152;28;20017;-76
2022/07/19 07:13:33;;;;;;;;;;;;;;;25.57;33.13;100669.09;6223284;28;20299;-71
2022/07/19 07:16:33;;;;;;;;;;;;;;;25.68;34.04;100663.38;6252306;28;19969;-71
2022/07/19 07:19:34;;;;;;;;;;;;;;;25.97;35.72;100671.72;6230133;28;20332;-71
2022/07/19 07:22:35;;;;;;;;;;;;;;;26.20;32.91;100663.66;6264241;28;19927;-71
2022/07/19 07:25:36;;;;;;;;;;;;;;;26.40;32.00;100655.91;6265625;28;19975;-76
2022/07/19 07:28:36;;;;;;;;;;;;;;;26.56;32.57;100661.09;6271125;28;20011;-76
2022/07/19 07:31:37;;;;;;;;;;;;;;;26.42;31.75;100645.88;6235660;28;19974;-76
2022/07/19 07:34:38;;;;;;;;;;;;;;;26.72;33.04;100652.94;6246404;28;20319;-76
2022/07/19 07:37:39;;;;;;;;;;;;;;;26.81;33.06;100648.34;6246391;28;20453;-71
2022/07/19 07:40:40;;;;;;;;;;;;;;;27.05;33.10;100655.22;6245873;28;19921;-76
2022/07/19 07:43:40;;;;;;;;;;;;;;;26.97;32.10;100652.63;6246207;28;20023;-71
2022/07/19 07:46:41;;;;;;;;;;;;;;;26.88;32.54;100654.59;6246165;28;20371;-71
2022/07/19 07:49:42;;;;;;;;;;;;;;;27.01;33.03;100653.94;6246097;28;19925;-71
2022/07/19 07:52:43;;;;;;;;;;;;;;;27.30;32.86;100661.13;6229669;28;19925;-71
2022/07/19 07:55:43;;;;;;;;;;;;;;;27.56;32.38;100656.25;6246108;28;20024;-70
2022/07/19 07:58:44;;;;;;;;;;;;;;;27.71;31.48;100651.63;6229622;28;19921;-76
2022/07/19 08:01:45;;;;;;;;;;;;;;;27.91;30.75;100646.50;6246315;28;20291;-76
2022/07/19 08:04:45;;;;;;;;;;;;;;;28.03;30.67;100649.50;6229663;28;19921;-71
2022/07/19 08:07:46;;;;;;;;;;;;;;;28.27;30.55;100646.38;6245673;28;19943;-71
2022/07/19 08:10:47;;;;;;;;;;;;;;;28.28;30.87;100649.88;6229482;28;20046;-76
2022/07/19 08:13:47;;;;;;;;;;;;;;;28.37;29.65;100647.88;6245719;28;20402;-76
2022/07/19 08:16:48;;;;;;;;;;;;;;;28.50;31.94;100648.00;6246959;28;19921;-76
2022/07/19 08:19:49;;;;;;;;;;;;;;;28.68;32.09;100642.13;6246916;28;19932;-72
2022/07/19 08:22:49;;;;;;;;;;;;;;;28.82;28.34;100640.34;6213075;28;19925;-76
2022/07/19 08:25:50;;;;;;;;;;;;;;;28.85;28.28;100639.94;6229433;28;19921;-76
2022/07/19 08:28:51;;;;;;;;;;;;;;;28.99;29.87;100651.56;6229112;28;19921;-76
2022/07/19 08:31:51;;;;;;;;;;;;;;;29.21;29.85;100653.13;6229421;28;19921;-71
2022/07/19 08:34:52;;;;;;;;;;;;;;;28.99;27.05;100649.69;6245522;28;19921;-71
2022/07/19 08:37:53;;;;;;;;;;;;;;;29.24;27.49;100650.03;6245482;28;19928;-76
2022/07/19 08:40:55;;;;;;;;;;;;;;;29.39;26.76;100649.06;6246752;28;20146;-76
2022/07/19 08:43:56;;;;;;;;;;;;;;;28.80;27.49;100643.22;6246851;28;19921;-76
2022/07/19 08:46:57;;;;;;;;;;;;;;;29.21;27.96;100638.88;6246711;28;20007;-72
2022/07/19 08:49:59;;;;;;;;;;;;;;;29.45;26.36;100638.31;6246407;28;19961;-71
2022/07/19 08:53:01;;;;;;;;;;;;;;;29.48;26.31;100637.06;6249993;28;19921;-76
2022/07/19 08:57:56;;;;;;;;;;;;;;;29.47;25.33;100633.56;6251273;28;19947;-76
2022/07/19 08:59:23;;;;;;;;;;;;;;;29.78;28.83;100625.97;6259916;28;19967;-76
2022/07/19 09:02:24;;;;;;;;;;;;;;;29.90;27.47;100617.09;6233409;28;20291;-76
2022/07/19 09:05:26;;;;;;;;;;;;;;;29.96;25.41;100615.44;6243446;28;19921;-71
2022/07/19 09:08:27;;;;;;;;;;;;;;;30.23;28.78;100613.53;6249429;28;20064;-71
2022/07/19 09:11:31;;;;;;;;;;;;;;;30.35;26.46;100610.22;6250936;28;20383;-71
2022/07/19 09:14:34;;;;;;;;;;;;;;;30.42;25.56;100614.56;6249603;28;20119;-76
2022/07/19 09:17:35;;;;;;;;;;;;;;;30.33;24.13;100613.13;6240765;28;19920;-76
2022/07/19 09:20:37;;;;;;;;;;;;;;;30.51;26.21;100604.38;6241121;28;19920;-71
2022/07/19 09:23:40;;;;;;;;;;;;;;;30.65;24.86;100607.88;6257626;28;20402;-76
2022/07/19 09:26:54;;;;;;;;;;;;;;;30.48;23.89;100602.94;6275230;28;20371;-76
2022/07/19 09:29:56;;;;;;;;;;;;;;;30.60;25.22;100604.97;6257311;28;20454;-75
2022/07/19 09:33:05;;;;;;;;;;;;;;;30.80;25.20;100613.81;6257393;28;19921;-70
2022/07/19 09:36:13;;;;;;;;;;;;;;;30.88;25.42;100607.38;6275034;28;20391;-76
2022/07/19 09:39:26;;;;;;;;;;;;;;;30.98;24.74;100604.25;6247556;28;19974;-76
2022/07/19 09:42:38;;;;;;;;;;;;;;;31.48;25.12;100609.78;6256827;28;19959;-76
2022/07/19 09:45:39;;;;;;;;;;;;;;;31.55;24.93;100598.94;6274684;28;20329;-76
2022/07/19 09:48:43;;;;;;;;;;;;;;;31.67;24.39;100599.88;6256895;28;19925;-76
2022/07/19 09:51:45;;;;;;;;;;;;;;;30.76;24.06;100601.81;6274595;28;19927;-76
2022/07/19 09:54:46;;;;;;;;;;;;;;;30.87;23.20;100601.19;6256894;28;20013;-69
2022/07/19 09:57:48;;;;;;;;;;;;;;;31.64;22.99;100594.94;6256547;28;20383;-71
2022/07/19 10:00:49;;;;;;;;;;;;;;;32.10;22.99;100588.31;6274393;28;19921;-76
2022/07/19 10:03:54;;;;;;;;;;;;;;;32.36;24.17;100594.50;6239578;28;20012;-76
2022/07/19 10:06:55;;;;;;;;;;;;;;;32.39;22.85;100589.50;6274708;28;19920;-76
2022/07/19 10:09:56;;;;;;;;;;;;;;;32.60;21.90;100590.94;6274157;28;19952;-76
2022/07/19 10:12:58;;;;;;;;;;;;;;;32.82;22.34;100591.28;6274424;28;19943;-71
2022/07/19 10:15:59;;;;;;;;;;;;;;;32.82;21.25;100593.16;6256044;28;19920;-72
2022/07/19 10:19:13;;;;;;;;;;;;;;;32.86;21.83;100587.06;6255851;28;20027;-72
2022/07/19 10:22:14;;;;;;;;;;;;;;;32.72;21.86;100589.13;6273937;28;20326;-72
2022/07/19 10:25:17;;;;;;;;;;;;;;;32.58;22.42;100587.66;6273864;28;19921;-76
2022/07/19 10:28:29;;;;;;;;;;;;;;;32.77;22.50;100584.94;6255938;28;19927;-75
2022/07/19 10:31:30;;;;;;;;;;;;;;;31.95;22.09;100580.56;6255527;28;20386;-75
2022/07/19 10:34:32;;;;;;;;;;;;;;;32.13;23.45;100577.09;6255860;28;19921;-75
2022/07/19 10:37:39;;;;;;;;;;;;;;;32.53;22.63;100582.91;6255722;28;20429;-75
2022/07/19 10:40:45;;;;;;;;;;;;;;;32.61;22.54;100578.25;6261251;28;20299;-75
2022/07/19 10:44:06;;;;;;;;;;;;;;;32.56;21.94;100575.44;6235388;28;19966;-75
2022/07/19 10:47:07;;;;;;;;;;;;;;;32.17;22.30;100577.50;6230927;28;19976;-75
2022/07/19 10:50:14;;;;;;;;;;;;;;;31.67;22.20;100576.47;6261905;28;19948;-76
2022/07/19 10:53:34;;;;;;;;;;;;;;;32.75;21.67;100570.81;6259742;28;19927;-75
2022/07/19 10:56:36;;;;;;;;;;;;;;;31.61;21.94;100569.25;6246816;28;19925;-75
2022/07/19 10:59:44;;;;;;;;;;;;;;;31.91;22.27;100563.16;6255077;28;20353;-71
2022/07/19 11:02:46;;;;;;;;;;;;;;;32.11;21.63;100565.69;6255149;28;19920;-75
2022/07/19 11:05:52;;;;;;;;;;;;;;;32.37;22.61;100564.59;6273073;28;19925;-75
2022/07/19 11:08:57;;;;;;;;;;;;;;;32.30;21.65;100564.66;6273081;28;19921;-71
2022/07/19 11:11:58;;;;;;;;;;;;;;;32.38;22.26;100555.44;6272675;28;19974;-70
2022/07/19 11:15:01;;;;;;;;;;;;;;;32.58;21.35;100559.81;6240801;28;19921;-70
2022/07/19 11:18:06;;;;;;;;;;;;;;;32.27;23.31;100559.72;6230804;28;19924;-75
2022/07/19 11:21:06;;;;;;;;;;;;;;;33.09;22.01;100556.66;6214447;28;19921;-76
2022/07/19 11:24:07;;;;;;;;;;;;;;;33.47;21.78;100547.31;6214585;28;19928;-75
2022/07/19 11:27:08;;;;;;;;;;;;;;;33.35;21.22;100535.66;6231056;28;19921;-75
2022/07/19 11:30:09;;;;;;;;;;;;;;;33.18;21.25;100543.63;6248227;28;20402;-76
2022/07/19 11:33:10;;;;;;;;;;;;;;;33.42;24.72;100546.38;6230711;28;20307;-76
2022/07/19 11:36:11;;;;;;;;;;;;;;;33.59;23.35;100543.81;6263099;28;19921;-76
2022/07/19 11:39:12;;;;;;;;;;;;;;;33.45;22.04;100538.63;6248335;28;20026;-75
2022/07/19 11:42:12;;;;;;;;;;;;;;;33.22;20.12;100533.19;6253890;28;19925;-76
2022/07/19 11:45:20;;;;;;;;;;;;;;;33.33;22.11;100532.38;6238426;28;19964;-76
2022/07/19 11:48:28;;;;;;;;;;;;;;;33.43;20.28;100535.31;6268272;28;19920;-70
2022/07/19 11:51:29;;;;;;;;;;;;;;;33.70;20.94;100540.31;6227453;28;19927;-75
2022/07/19 11:54:30;;;;;;;;;;;;;;;33.86;19.64;100533.38;6254683;28;19932;-75
2022/07/19 11:57:31;;;;;;;;;;;;;;;34.02;24.88;100537.25;6214213;28;19921;-76
2022/07/19 12:00:33;;;;;;;;;;;;;;;34.04;21.21;100525.13;6229422;28;19925;-71
2022/07/19 12:03:35;;;;;;;;;;;;;;;34.20;21.50;100526.28;6247233;28;20024;-75
2022/07/19 12:06:45;;;;;;;;;;;;;;;33.88;20.23;100525.84;6229524;28;20411;-76
2022/07/19 12:09:46;;;;;;;;;;;;;;;34.01;21.68;100520.16;6229437;28;19971;-70
2022/07/19 12:12:47;;;;;;;;;;;;;;;33.69;20.21;100517.03;6247065;28;20330;-68
2022/07/19 12:15:53;;;;;;;;;;;;;;;33.82;20.65;100513.25;6229478;28;19920;-69
2022/07/19 12:18:56;;;;;;;;;;;;;;;33.72;21.19;100505.72;6248909;28;19931;-75
2022/07/19 12:21:58;;;;;;;;;;;;;;;33.86;20.42;100504.44;6238999;28;19931;-76
2022/07/19 12:24:59;;;;;;;;;;;;;;;33.87;22.25;100505.25;6218971;28;19928;-75
2022/07/19 12:27:59;;;;;;;;;;;;;;;34.06;23.07;100498.66;6263634;28;19925;-70
2022/07/19 12:31:01;;;;;;;;;;;;;;;34.07;21.12;100492.16;6231634;28;20376;-70
2022/07/19 12:34:03;;;;;;;;;;;;;;;33.59;19.62;100490.53;6276390;28;19960;-75
2022/07/19 12:37:17;;;;;;;;;;;;;;;32.65;20.52;100493.00;6226019;28;20298;-76
2022/07/19 12:40:22;;;;;;;;;;;;;;;32.51;21.47;100495.03;6258678;28;19933;-75
2022/07/19 12:43:23;;;;;;;;;;;;;;;32.46;21.53;100484.91;6258815;28;20389;-75
2022/07/19 12:46:24;;;;;;;;;;;;;;;33.00;20.68;100490.41;6258388;28;19920;-77
2022/07/19 12:49:39;;;;;;;;;;;;;;;32.80;20.24;100485.34;6276198;28;19921;-76
2022/07/19 12:52:40;;;;;;;;;;;;;;;33.06;21.53;100481.38;6276072;28;19971;-75
2022/07/19 12:55:43;;;;;;;;;;;;;;;32.57;21.28;100487.94;6241885;28;20255;-75
2022/07/19 13:02:03;;;;;;;;;;;;;;;31.54;21.32;100479.47;6195323;28;19933;-75
2022/07/19 13:05:04;;;;;;;;;;;;;;;31.93;21.43;100475.53;6242779;28;19955;-76
2022/07/19 13:08:05;;;;;;;;;;;;;;;31.98;21.31;100477.59;6276269;28;19920;-76
2022/07/19 13:11:06;;;;;;;;;;;;;;;31.92;21.51;100476.59;6257712;28;19921;-75
2022/07/19 13:14:07;;;;;;;;;;;;;;;31.72;21.13;100468.72;6263192;28;19991;-74
2022/07/19 13:17:11;;;;;;;;;;;;;;;31.62;21.43;100468.41;6217408;28;19960;-76
2022/07/19 13:20:12;;;;;;;;;;;;;;;31.96;23.90;100465.34;6217284;28;20351;-76
2022/07/19 13:23:13;;;;;;;;;;;;;;;31.81;21.20;100454.94;6216225;28;20004;-74
2022/07/19 13:26:14;;;;;;;;;;;;;;;31.84;21.20;100459.91;6233883;28;19920;-75
2022/07/19 13:29:15;;;;;;;;;;;;;;;31.69;21.42;100454.84;6237006;28;19987;-75
2022/07/19 13:32:15;;;;;;;;;;;;;;;31.66;20.85;100448.03;6251968;28;19928;-75
2022/07/19 13:35:16;;;;;;;;;;;;;;;31.83;22.32;100445.56;6255353;28;20383;-76
2022/07/19 13:38:17;;;;;;;;;;;;;;;31.64;22.50;100441.22;6240826;28;19921;-76
2022/07/19 13:41:18;;;;;;;;;;;;;;;31.83;21.63;100433.94;6257901;28;19931;-75
2022/07/19 13:44:20;;;;;;;;;;;;;;;31.92;22.61;100433.44;6254249;28;19982;-76
2022/07/19 13:47:20;;;;;;;;;;;;;;;31.90;21.46;100422.03;6240075;28;19956;-75
2022/07/19 13:50:21;;;;;;;;;;;;;;;31.76;21.12;100425.13;6243237;28;19921;-76
2022/07/19 13:53:22;;;;;;;;;;;;;;;31.83;22.78;100421.28;6261626;28;19928;-75
2022/07/19 13:56:23;;;;;;;;;;;;;;;31.91;21.43;100422.84;6259182;28;19968;-75
2022/07/19 13:59:26;;;;;;;;;;;;;;;31.82;21.17;100416.94;6232789;28;19925;-75
2022/07/19 14:02:28;;;;;;;;;;;;;;;31.82;21.48;100416.13;6250469;28;19921;-70
2022/07/19 14:05:29;;;;;;;;;;;;;;;31.85;21.81;100408.38;6250289;28;19947;-70
2022/07/19 14:08:32;;;;;;;;;;;;;;;31.70;21.13;100406.06;6232660;28;19970;-70
2022/07/19 14:11:34;;;;;;;;;;;;;;;31.71;21.36;100404.19;6232554;28;20372;-75
2022/07/19 14:14:35;;;;;;;;;;;;;;;31.55;23.77;100399.38;6247991;28;19928;-75
2022/07/19 14:17:36;;;;;;;;;;;;;;;31.06;22.41;100397.34;6249480;28;19921;-75
2022/07/19 14:20:39;;;;;;;;;;;;;;;31.02;21.95;100396.13;6215538;28;19967;-75
2022/07/19 14:23:40;;;;;;;;;;;;;;;31.20;23.99;100394.53;6248696;28;19921;-75
2022/07/19 14:26:41;;;;;;;;;;;;;;;30.86;22.57;100383.16;6249713;28;19921;-75
2022/07/19 14:29:42;;;;;;;;;;;;;;;30.98;23.30;100381.44;6215147;28;19921;-75
2022/07/19 14:32:43;;;;;;;;;;;;;;;30.96;22.13;100382.72;6231317;28;19921;-75
2022/07/19 14:35:44;;;;;;;;;;;;;;;30.81;22.67;100385.72;6247813;28;19920;-75
2022/07/19 14:38:47;;;;;;;;;;;;;;;30.92;21.87;100377.75;6247548;28;19921;-75
2022/07/19 14:41:50;;;;;;;;;;;;;;;30.94;22.29;100377.53;6247599;28;20082;-74
2022/07/19 14:44:51;;;;;;;;;;;;;;;30.98;22.51;100375.25;6248827;28;19964;-74
2022/07/19 14:47:52;;;;;;;;;;;;;;;30.92;21.76;100368.84;6247363;28;19921;-74
2022/07/19 14:50:53;;;;;;;;;;;;;;;30.82;21.58;100369.31;6247377;28;20437;-74
2022/07/19 14:53:54;;;;;;;;;;;;;;;30.87;21.83;100374.91;6250736;28;20020;-74
2022/07/19 14:56:55;;;;;;;;;;;;;;;30.88;21.71;100360.38;6252518;28;19921;-69
2022/07/19 14:59:56;;;;;;;;;;;;;;;30.92;21.96;100371.56;6247190;28;19921;-75
2022/07/19 15:02:59;;;;;;;;;;;;;;;31.05;22.64;100365.22;6246939;28;19921;-75
2022/07/19 15:06:00;;;;;;;;;;;;;;;30.92;21.42;100358.91;6248212;28;19920;-75
2022/07/19 15:09:01;;;;;;;;;;;;;;;30.85;21.71;100357.28;6258497;28;19931;-75
2022/07/19 15:12:02;;;;;;;;;;;;;;;30.71;22.46;100359.25;6272601;28;19921;-75
2022/07/19 15:15:03;;;;;;;;;;;;;;;30.82;22.30;100346.94;6254733;28;19920;-74
2022/07/19 15:18:05;;;;;;;;;;;;;;;30.75;22.16;100349.69;6238703;28;19928;-75
2022/07/19 15:21:07;;;;;;;;;;;;;;;30.76;21.98;100353.22;6238670;28;20383;-69
2022/07/19 15:24:10;;;;;;;;;;;;;;;30.50;21.79;100355.06;6254703;28;19921;-69
2022/07/19 15:27:10;;;;;;;;;;;;;;;30.79;22.79;100352.78;6238199;28;19920;-75
2022/07/19 15:30:15;;;;;;;;;;;;;;;30.85;21.84;100341.13;6254819;28;19927;-75
2022/07/19 15:33:15;;;;;;;;;;;;;;;30.84;21.70;100334.91;6254580;28;19921;-75
2022/07/19 15:36:16;;;;;;;;;;;;;;;30.95;21.88;100338.78;6254913;28;19920;-75
2022/07/19 15:39:19;;;;;;;;;;;;;;;30.76;21.73;100334.34;6272488;28;19920;-75
2022/07/19 15:42:19;;;;;;;;;;;;;;;30.82;21.41;100331.59;6238213;28;19928;-70